Time;durP1;ratioP1;P1;durP2;ratioP2;P2;SDS_P1;SDS_P2;PMS_P1;PMS_P2;Temp;Humidity;BMP_temperature;BMP_pressure;BME280_temperature;BME280_humidity;BME280_pressure;Samples;Min_cycle;Max_cycle;Signal;HPM_P1;HPM_P2
2024/01/15 00:02:03;;;;;;;2.25;1.50;;;;;;;15.74;38.07;91774.56;5047701;28;20036;-87
2024/01/15 00:04:28;;;;;;;2.15;1.52;;;;;;;15.72;37.72;91768.19;5034138;28;20045;-87
2024/01/15 00:06:54;;;;;;;1.98;1.40;;;;;;;15.68;37.71;91765.06;5056938;28;20040;-87
2024/01/15 00:09:19;;;;;;;1.52;1.20;;;;;;;15.73;37.67;91762.19;5030129;28;20047;-86
2024/01/15 00:11:46;;;;;;;3.28;1.80;;;;;;;15.74;38.29;91774.56;5026736;28;20037;-86
2024/01/15 00:14:13;;;;;;;2.05;1.60;;;;;;;15.68;37.83;91762.31;5044885;28;20065;-86
2024/01/15 00:16:40;;;;;;;2.50;1.45;;;;;;;15.71;37.97;91762.00;5042462;28;20080;-86
2024/01/15 00:19:06;;;;;;;2.03;1.73;;;;;;;15.72;37.93;91771.63;5038492;28;20040;-87
2024/01/15 00:21:31;;;;;;;2.33;1.60;;;;;;;15.71;37.88;91764.00;5061331;28;20040;-87
2024/01/15 00:23:57;;;;;;;2.38;1.65;;;;;;;15.75;37.47;91759.69;5041280;28;20056;-87
2024/01/15 00:26:23;;;;;;;2.70;1.95;;;;;;;15.72;37.92;91751.84;5033614;28;20091;-86
2024/01/15 00:28:49;;;;;;;1.70;1.35;;;;;;;15.70;37.97;91743.47;5048178;28;20032;-86
2024/01/15 00:31:16;;;;;;;2.88;2.05;;;;;;;15.64;37.78;91727.25;5050525;28;20107;-86
2024/01/15 00:33:42;;;;;;;2.55;1.60;;;;;;;15.66;37.73;91727.44;5043921;28;20067;-86
2024/01/15 00:36:08;;;;;;;2.13;1.50;;;;;;;15.63;38.40;91736.69;5040882;28;20036;-87
2024/01/15 00:38:33;;;;;;;2.22;1.67;;;;;;;15.65;38.19;91723.25;5038403;28;20622;-86
2024/01/15 00:40:58;;;;;;;2.15;1.55;;;;;;;15.70;37.49;91729.84;5051960;28;20036;-86
2024/01/15 00:43:24;;;;;;;2.10;1.50;;;;;;;15.66;37.73;91730.19;5048611;28;20123;-87
2024/01/15 00:45:49;;;;;;;2.80;1.60;;;;;;;15.63;37.75;91736.69;5036421;28;20415;-86
2024/01/15 00:48:15;;;;;;;3.10;2.08;;;;;;;15.65;37.66;91726.00;5035153;28;20048;-87
2024/01/15 00:50:40;;;;;;;2.58;1.80;;;;;;;15.65;37.85;91733.44;5028039;28;20102;-86
2024/01/15 00:53:05;;;;;;;3.15;2.03;;;;;;;15.66;37.73;91730.19;5071641;28;20368;-87
2024/01/15 00:55:31;;;;;;;2.63;1.80;;;;;;;15.63;38.11;91723.06;5036847;28;20043;-86
2024/01/15 00:57:57;;;;;;;2.40;1.90;;;;;;;15.61;38.03;91714.69;5047404;28;20037;-86
2024/01/15 01:00:22;;;;;;;2.28;1.50;;;;;;;15.66;37.84;91702.94;5024415;28;20491;-86
2024/01/15 01:02:48;;;;;;;2.92;1.55;;;;;;;15.75;37.56;91712.63;5054048;28;20043;-86
2024/01/15 01:05:13;;;;;;;3.08;2.00;;;;;;;15.67;37.73;91723.47;5053434;28;20048;-86
2024/01/15 01:07:38;;;;;;;2.83;1.75;;;;;;;15.62;37.91;91721.59;5030470;28;20064;-87
2024/01/15 01:10:04;;;;;;;2.58;1.70;;;;;;;15.61;37.77;91716.69;5035055;28;20037;-88
2024/01/15 01:12:30;;;;;;;2.40;1.70;;;;;;;15.59;38.13;91719.94;5055198;28;20055;-86
2024/01/15 01:14:55;;;;;;;2.92;1.65;;;;;;;15.62;37.73;91707.25;5040358;28;20094;-86
2024/01/15 01:17:21;;;;;;;2.42;1.80;;;;;;;15.63;37.83;91711.44;5030611;28;20073;-86
2024/01/15 01:19:49;;;;;;;2.45;1.85;;;;;;;15.66;37.54;91708.38;5029634;28;20049;-87
2024/01/15 01:22:15;;;;;;;3.03;2.03;;;;;;;15.67;37.79;91707.13;5029466;28;20049;-87
2024/01/15 01:24:40;;;;;;;2.53;1.80;;;;;;;15.69;37.73;91692.97;5039182;28;20041;-86
2024/01/15 01:27:06;;;;;;;2.28;1.70;;;;;;;15.76;37.75;91697.75;5027597;28;20041;-87
2024/01/15 01:29:31;;;;;;;2.67;1.88;;;;;;;15.71;37.83;91696.63;5029639;28;20044;-87
2024/01/15 01:31:56;;;;;;;2.30;1.42;;;;;;;15.63;38.13;91697.81;5050834;28;20041;-86
2024/01/15 01:34:22;;;;;;;2.53;1.90;;;;;;;15.68;37.64;91702.41;5059921;28;20040;-86
2024/01/15 01:36:47;;;;;;;4.15;1.50;;;;;;;15.73;37.61;91713.16;5047578;28;20059;-86
2024/01/15 01:39:13;;;;;;;2.75;1.90;;;;;;;15.71;37.42;91715.69;5052151;28;20334;-86
2024/01/15 01:41:38;;;;;;;2.95;1.48;;;;;;;15.60;37.97;91715.94;5045150;28;20547;-86
2024/01/15 01:44:04;;;;;;;2.17;1.60;;;;;;;15.58;37.66;91704.88;5031373;28;20060;-86
2024/01/15 01:46:29;;;;;;;2.67;1.67;;;;;;;15.63;37.72;91712.16;5053066;28;20053;-86
2024/01/15 01:48:55;;;;;;;3.17;2.00;;;;;;;15.67;37.62;91709.84;5052078;28;20544;-86
2024/01/15 01:51:22;;;;;;;2.65;2.03;;;;;;;15.75;37.47;91715.34;5040225;28;20053;-86
2024/01/15 01:53:48;;;;;;;2.10;1.40;;;;;;;15.68;37.56;91708.59;5046965;28;20506;-88
2024/01/15 01:56:14;;;;;;;2.72;2.03;;;;;;;15.68;37.70;91710.56;5041308;28;20056;-86
2024/01/15 01:58:39;;;;;;;2.70;1.88;;;;;;;15.68;37.86;91710.56;5064128;28;20407;-87
2024/01/15 02:01:05;;;;;;;3.78;2.13;;;;;;;15.70;37.77;91708.78;5029966;28;20061;-86
2024/01/15 02:03:30;;;;;;;3.13;2.15;;;;;;;15.65;38.03;91706.19;5047961;28;20394;-86
2024/01/15 02:05:56;;;;;;;2.45;1.48;;;;;;;15.69;37.45;91706.59;5044014;28;20049;-87
2024/01/15 02:08:21;;;;;;;2.72;1.73;;;;;;;15.65;37.72;91704.19;5046349;28;20789;-87
2024/01/15 02:10:47;;;;;;;2.60;1.90;;;;;;;15.66;38.01;91715.81;5069408;28;20043;-86
2024/01/15 02:13:12;;;;;;;2.58;1.60;;;;;;;15.62;37.96;91707.25;5060848;28;20040;-86
2024/01/15 02:15:38;;;;;;;4.60;2.00;;;;;;;15.64;37.65;91708.19;5048742;28;20033;-87
2024/01/15 02:18:04;;;;;;;2.72;1.95;;;;;;;15.63;37.68;91698.56;5063363;28;20055;-86
2024/01/15 02:20:30;;;;;;;2.65;1.92;;;;;;;15.63;37.61;91698.56;5038924;28;20040;-86
2024/01/15 02:23:08;;;;;;;3.15;2.03;;;;;;;15.66;37.78;91696.75;5073456;28;20070;-86
2024/01/15 02:25:34;;;;;;;2.67;1.98;;;;;;;15.63;37.69;91708.72;5067355;28;20040;-86
2024/01/15 02:27:59;;;;;;;2.50;1.67;;;;;;;15.58;37.83;91707.63;5033629;28;20078;-86
2024/01/15 02:30:25;;;;;;;2.35;1.80;;;;;;;15.64;37.50;91708.19;5053582;28;20076;-86
2024/01/15 02:32:51;;;;;;;3.13;1.83;;;;;;;15.62;37.69;91707.97;5085005;28;20465;-85
2024/01/15 02:35:16;;;;;;;3.10;1.80;;;;;;;15.72;37.30;91702.78;5064487;28;20085;-86
2024/01/15 02:37:42;;;;;;;2.33;1.60;;;;;;;15.58;37.72;91696.00;5042287;28;20046;-86
2024/01/15 02:40:08;;;;;;;4.25;2.35;;;;;;;15.60;37.95;91704.34;5054364;28;20064;-87
2024/01/15 02:42:34;;;;;;;2.28;1.95;;;;;;;15.63;37.87;91698.56;5035527;28;20040;-87
2024/01/15 02:45:00;;;;;;;3.38;2.35;;;;;;;15.67;37.50;91701.66;5069776;28;20035;-87
2024/01/15 02:47:25;;;;;;;2.13;1.73;;;;;;;15.66;37.54;91696.75;5046335;28;20045;-86
2024/01/15 02:49:50;;;;;;;2.53;1.70;;;;;;;15.64;37.71;91707.44;5055221;28;20033;-86
2024/01/15 02:52:16;;;;;;;2.83;2.17;;;;;;;15.62;37.75;91716.16;5046639;28;20098;-86
2024/01/15 02:54:41;;;;;;;3.00;2.10;;;;;;;15.71;37.30;91712.97;5054541;28;20063;-86
2024/01/15 02:57:07;;;;;;;3.15;2.10;;;;;;;15.62;37.68;91710.72;5032413;28;20422;-87
2024/01/15 02:59:32;;;;;;;3.20;2.28;;;;;;;15.68;37.76;91705.13;5054329;28;20043;-87
2024/01/15 03:01:58;;;;;;;2.90;2.00;;;;;;;15.72;37.76;91717.16;5028521;28;20122;-86
2024/01/15 03:04:23;;;;;;;3.28;2.10;;;;;;;15.73;37.49;91729.50;5077684;28;20033;-86
2024/01/15 03:06:49;;;;;;;3.20;2.10;;;;;;;15.73;37.24;91734.22;5040519;28;20489;-86
2024/01/15 03:09:14;;;;;;;4.85;2.65;;;;;;;15.66;37.92;91737.63;5086286;28;20048;-87
2024/01/15 03:11:39;;;;;;;2.83;2.20;;;;;;;15.63;37.80;91744.84;5048248;28;20068;-87
2024/01/15 03:14:05;;;;;;;3.05;1.92;;;;;;;15.67;37.53;91747.25;5046385;28;20049;-85
2024/01/15 03:16:30;;;;;;;3.72;2.72;;;;;;;15.64;37.91;91751.75;5061057;28;20037;-88
2024/01/15 03:18:56;;;;;;;3.22;2.35;;;;;;;15.64;37.73;91759.94;5070095;28;20036;-86
2024/01/15 03:21:21;;;;;;;3.38;2.05;;;;;;;15.69;37.36;91758.34;5042928;28;20100;-87
2024/01/15 03:23:47;;;;;;;2.45;1.92;;;;;;;15.69;37.70;91761.81;5050394;28;20058;-86
2024/01/15 03:26:12;;;;;;;3.20;2.00;;;;;;;15.71;37.56;91764.72;5049426;28;20029;-86
2024/01/15 03:28:38;;;;;;;3.80;2.08;;;;;;;15.64;37.46;91761.94;5062858;28;20047;-86
2024/01/15 03:31:03;;;;;;;3.03;2.40;;;;;;;15.65;37.54;91763.38;5063458;28;20033;-86
2024/01/15 03:33:29;;;;;;;3.70;2.42;;;;;;;15.68;37.44;91775.94;5030291;28;20499;-86
2024/01/15 03:35:54;;;;;;;4.70;2.45;;;;;;;15.60;37.66;91764.97;5047646;28;20052;-86
2024/01/15 03:38:20;;;;;;;2.90;1.98;;;;;;;15.64;37.88;91767.38;5052390;28;20154;-87
2024/01/15 03:40:46;;;;;;;2.63;1.95;;;;;;;15.64;37.91;91775.53;5059979;28;20036;-86
2024/01/15 03:43:12;;;;;;;2.88;1.88;;;;;;;15.73;37.42;91770.38;5049816;28;20052;-86
2024/01/15 03:45:37;;;;;;;4.22;2.22;;;;;;;15.68;37.67;91784.84;5032840;28;20036;-86
2024/01/15 03:48:03;;;;;;;3.97;2.35;;;;;;;15.61;37.68;91777.34;5037274;28;20496;-87
2024/01/15 03:50:28;;;;;;;3.72;2.40;;;;;;;15.62;37.68;91778.81;5069484;28;20047;-86
2024/01/15 03:52:55;;;;;;;3.88;2.60;;;;;;;15.57;37.87;91770.78;5059469;28;20036;-86
2024/01/15 03:55:20;;;;;;;3.72;2.55;;;;;;;15.57;37.68;91763.34;5078167;28;20032;-86
2024/01/15 03:57:46;;;;;;;2.90;2.28;;;;;;;15.61;37.48;91774.63;5059264;28;20520;-86
2024/01/15 04:00:12;;;;;;;3.60;2.55;;;;;;;15.56;37.74;91756.44;5108315;27;20073;-86
2024/01/15 04:02:37;;;;;;;4.95;2.25;;;;;;;15.62;37.75;91764.44;5080241;28;20036;-87
2024/01/15 04:05:03;;;;;;;3.35;2.55;;;;;;;15.63;37.42;91768.63;5089922;27;20346;-87
2024/01/15 04:07:28;;;;;;;3.15;2.45;;;;;;;15.61;37.81;91761.00;5052579;28;20112;-86
2024/01/15 04:09:54;;;;;;;3.15;2.25;;;;;;;15.69;37.31;91750.91;5068451;28;20038;-85
2024/01/15 04:12:19;;;;;;;3.83;2.33;;;;;;;15.69;37.57;91753.63;5088268;27;20506;-86
2024/01/15 04:14:45;;;;;;;4.30;2.78;;;;;;;15.63;37.78;91746.84;5070875;27;20448;-86
2024/01/15 04:17:10;;;;;;;2.70;2.03;;;;;;;15.64;37.48;91734.69;5053893;28;20070;-87
2024/01/15 04:19:35;;;;;;;2.95;2.00;;;;;;;15.65;37.50;91745.06;5049677;28;20032;-88
2024/01/15 04:22:01;;;;;;;2.65;2.25;;;;;;;15.65;37.98;91752.50;5059297;27;20044;-88
2024/01/15 04:24:26;;;;;;;4.03;2.80;;;;;;;15.64;37.60;91761.94;5075688;28;20036;-90
2024/01/15 04:26:53;;;;;;;5.55;2.78;;;;;;;15.68;38.15;91765.78;5080340;27;20043;-89
2024/01/15 04:29:18;;;;;;;4.03;3.00;;;;;;;15.62;37.86;91772.63;5062033;27;20048;-87
2024/01/15 04:31:44;;;;;;;7.07;4.97;;;;;;;15.57;37.94;91776.97;5071379;28;20124;-87
2024/01/15 04:34:09;;;;;;;12.60;9.05;;;;;;;15.61;37.48;91784.78;5078997;28;20716;-87
2024/01/15 04:36:40;;;;;;;11.45;4.90;;;;;;;15.67;38.18;91788.09;5060329;28;20055;-87
2024/01/15 04:39:06;;;;;;;;;;;;;;;15.69;37.86;91785.59;5053066;28;20040;-88
2024/01/15 04:41:31;;;;;;;17.65;11.65;;;;;;;15.73;37.60;91792.16;5075229;27;19930;-89
2024/01/15 04:44:01;;;;;;;26.98;15.15;;;;;;;15.65;38.14;91785.19;5067539;27;20043;-91
2024/01/15 04:46:48;;;;;;;24.75;13.07;;;;;;;15.71;38.29;91777.63;5045019;28;20044;-88
2024/01/15 04:49:14;;;;;;;21.83;13.85;;;;;;;15.74;38.15;91790.91;5049313;28;20053;-89
2024/01/15 04:51:40;;;;;;;34.90;20.75;;;;;;;15.76;38.03;91804.00;5033049;28;20039;-89
2024/01/15 04:54:06;;;;;;;19.23;11.75;;;;;;;15.68;37.75;91801.19;5049001;27;20055;-89
2024/01/15 04:56:31;;;;;;;16.48;11.52;;;;;;;15.70;37.72;91809.56;5050674;28;20044;-88
2024/01/15 04:58:57;;;;;;;37.22;15.43;;;;;;;15.57;35.27;91806.91;5074790;28;20040;-88
2024/01/15 05:01:22;;;;;;;29.85;14.88;;;;;;;15.38;34.06;91809.03;5042561;28;20044;-89
2024/01/15 05:03:49;;;;;;;34.65;16.70;;;;;;;15.44;34.62;91810.38;5077315;28;20050;-89
2024/01/15 05:06:14;;;;;;;30.90;15.32;;;;;;;15.44;35.01;91802.22;5049381;28;20081;-87
2024/01/15 05:08:40;;;;;;;38.58;16.45;;;;;;;15.43;35.78;91813.63;5047442;28;20044;-87
2024/01/15 05:11:06;;;;;;;37.75;18.38;;;;;;;15.42;35.95;91804.75;5052319;28;20398;-86
2024/01/15 05:13:31;;;;;;;42.30;18.52;;;;;;;15.43;35.84;91811.66;5054847;28;20071;-88
2024/01/15 05:15:57;;;;;;;58.72;19.50;;;;;;;15.48;36.06;91790.28;5057193;28;20409;-87
2024/01/15 05:18:23;;;;;;;36.78;17.25;;;;;;;15.51;36.52;91802.81;5059626;28;20142;-85
2024/01/15 05:20:49;;;;;;;36.70;15.95;;;;;;;15.60;36.75;91794.22;5080713;28;20043;-87
2024/01/15 05:23:14;;;;;;;48.97;21.55;;;;;;;15.68;36.73;91803.19;5052663;28;20044;-89
2024/01/15 05:25:42;;;;;;;42.92;18.00;;;;;;;15.63;36.85;91802.06;4999682;28;20753;-89
2024/01/15 05:28:09;;;;;;;37.75;15.90;;;;;;;15.65;36.57;91801.53;5032031;28;20033;-90
2024/01/15 05:30:35;;;;;;;46.63;20.75;;;;;;;15.69;36.94;91802.66;5040554;28;20048;-90
2024/01/15 05:33:01;;;;;;;49.33;22.35;;;;;;;15.66;36.97;91795.53;5043065;28;20032;-90
2024/01/15 05:35:26;;;;;;;53.28;22.70;;;;;;;15.62;37.41;91797.13;5016083;28;20060;-90
2024/01/15 05:37:52;;;;;;;46.03;20.27;;;;;;;15.54;36.65;91799.78;5046261;28;20048;-88
2024/01/15 05:40:17;;;;;;;52.22;19.58;;;;;;;15.42;36.10;91793.13;5042328;28;20098;-91
2024/01/15 05:42:43;;;;;;;47.17;18.77;;;;;;;15.44;36.35;91793.31;5040988;28;20044;-89
2024/01/15 05:45:08;;;;;;;56.85;20.10;;;;;;;15.59;36.49;91796.19;5034013;28;20044;-87
2024/01/15 05:47:34;;;;;;;52.40;22.52;;;;;;;15.63;36.86;91798.59;5053793;28;20041;-89
2024/01/15 05:50:00;;;;;;;43.40;22.52;;;;;;;15.62;36.86;91803.31;5032190;28;20043;-91
2024/01/15 05:52:26;;;;;;;43.35;19.98;;;;;;;15.64;37.11;91797.34;5038814;28;20526;-90
2024/01/15 05:54:52;;;;;;;47.22;19.98;;;;;;;15.55;37.30;91800.50;5050658;28;20162;-90
2024/01/15 05:57:17;;;;;;;37.22;19.52;;;;;;;15.57;37.10;91798.03;5019335;28;20079;-91
2024/01/15 05:59:44;;;;;;;69.15;25.75;;;;;;;15.60;36.87;91788.75;5037035;28;20044;-90
2024/01/15 06:02:12;;;;;;;76.25;39.38;;;;;;;15.68;37.09;91789.56;5023264;28;20685;-91
2024/01/15 06:04:39;;;;;;;77.68;41.40;;;;;;;15.63;36.98;91785.72;5047594;28;20519;-89
2024/01/15 06:07:05;;;;;;;114.00;56.50;;;;;;;15.62;36.98;91795.16;5069128;27;20049;-89
2024/01/15 06:09:31;;;;;;;141.63;70.15;;;;;;;15.65;36.88;91790.63;5053693;27;20046;-90
2024/01/15 06:11:57;;;;;;;168.07;81.97;;;;;;;15.63;36.86;91790.44;5050922;27;20048;-90
2024/01/15 06:14:22;;;;;;;179.88;94.13;;;;;;;15.61;37.43;91787.50;5054018;27;20097;-89
2024/01/15 06:16:49;;;;;;;186.70;105.18;;;;;;;15.62;36.91;91786.97;5052723;28;20037;-90
2024/01/15 06:19:14;;;;;;;208.35;107.80;;;;;;;15.63;37.24;91788.44;5051819;28;20048;-88
2024/01/15 06:21:40;;;;;;;251.73;114.63;;;;;;;15.64;37.11;91781.72;5067719;28;20051;-91
2024/01/15 06:24:05;;;;;;;213.10;110.43;;;;;;;15.74;36.61;91776.56;5068612;28;20042;-87
2024/01/15 06:26:31;;;;;;;213.38;113.72;;;;;;;15.66;36.46;91771.03;5052209;28;20040;-89
2024/01/15 06:28:56;;;;;;;227.68;116.22;;;;;;;15.70;36.12;91765.25;5050401;27;20058;-89
2024/01/15 06:31:22;;;;;;;256.58;132.05;;;;;;;15.74;36.55;91768.38;5070319;28;20093;-91
2024/01/15 06:33:48;;;;;;;263.88;141.30;;;;;;;15.65;36.94;91766.13;5060534;27;20112;-90
2024/01/15 06:36:16;;;;;;;311.40;164.43;;;;;;;15.70;36.83;91760.53;5066695;27;20031;-90
2024/01/15 06:38:42;;;;;;;285.98;156.80;;;;;;;15.75;36.27;91778.75;5054622;27;20040;-92
2024/01/15 06:41:08;;;;;;;290.63;157.82;;;;;;;15.75;36.73;91769.84;5069726;28;20172;-88
2024/01/15 06:43:34;;;;;;;297.42;164.60;;;;;;;15.76;37.17;91769.31;5066403;27;20076;-92
2024/01/15 06:45:59;;;;;;;303.10;172.65;;;;;;;15.74;36.72;91771.84;5090724;28;20032;-91
2024/01/15 06:48:27;;;;;;;323.35;183.63;;;;;;;15.76;36.72;91766.59;5039355;27;20086;-92
2024/01/15 06:50:55;;;;;;;353.23;195.27;;;;;;;15.75;36.83;91761.66;5061266;28;20052;-93
2024/01/15 06:53:23;;;;;;;388.73;217.65;;;;;;;15.84;36.56;91763.91;5038190;28;20529;-93
2024/01/15 06:56:04;;;;;;;403.08;224.43;;;;;;;15.84;36.83;91768.63;5035948;28;20043;-93
2024/01/15 06:58:31;;;;;;;420.02;245.40;;;;;;;15.79;36.71;91764.06;5065582;28;20039;-91
2024/01/15 07:00:57;;;;;;;417.70;242.95;;;;;;;15.82;36.82;91769.16;5069832;28;20103;-92
2024/01/15 07:03:23;;;;;;;433.17;257.45;;;;;;;15.84;36.79;91777.53;5053674;28;20478;-89
2024/01/15 07:05:51;;;;;;;426.25;252.90;;;;;;;15.88;37.21;91777.91;5064643;28;20114;-93
2024/01/15 07:08:17;;;;;;;325.40;204.70;;;;;;;15.91;36.82;91776.13;5057186;28;20139;-92
2024/01/15 07:10:44;;;;;;;367.00;215.98;;;;;;;15.79;36.60;91785.84;5072461;28;20514;-92
2024/01/15 07:13:10;;;;;;;380.35;224.90;;;;;;;15.78;37.18;91785.13;5054284;28;20601;-91
2024/01/15 07:15:35;;;;;;;379.67;221.13;;;;;;;15.77;37.37;91781.66;5060482;28;20040;-92
2024/01/15 07:18:02;;;;;;;340.20;199.30;;;;;;;15.80;37.03;91784.59;5064870;28;20039;-90
2024/01/15 07:20:28;;;;;;;347.45;205.68;;;;;;;15.76;37.19;91779.47;5062836;28;20148;-90
2024/01/15 07:22:56;;;;;;;299.30;185.15;;;;;;;15.81;37.17;91784.03;5050622;28;20052;-90
2024/01/15 07:25:22;;;;;;;307.83;183.73;;;;;;;15.74;37.36;91790.91;5057161;28;20039;-90
2024/01/15 07:27:47;;;;;;;306.23;186.55;;;;;;;15.77;37.18;91786.38;5067414;28;20126;-91
2024/01/15 07:30:13;;;;;;;300.90;182.80;;;;;;;15.79;37.28;91788.59;5054937;28;20442;-92
2024/01/15 07:32:39;;;;;;;297.33;170.48;;;;;;;15.81;36.99;91786.03;5050888;28;20048;-91
2024/01/15 07:35:05;;;;;;;281.77;164.70;;;;;;;15.81;37.12;91791.47;5056182;28;20039;-89
2024/01/15 07:37:31;;;;;;;274.30;157.35;;;;;;;15.81;36.99;91797.66;5076084;28;20351;-91
2024/01/15 07:39:56;;;;;;;284.52;163.45;;;;;;;15.83;37.31;91805.31;5058824;28;20481;-89
2024/01/15 07:42:22;;;;;;;278.83;157.23;;;;;;;15.86;37.01;91798.78;5069876;28;20046;-87
2024/01/15 07:44:47;;;;;;;284.77;160.27;;;;;;;15.83;37.02;91795.13;5073085;28;20151;-91
2024/01/15 07:47:13;;;;;;;264.85;150.60;;;;;;;15.89;37.02;91797.72;5066745;28;20419;-87
2024/01/15 07:49:38;;;;;;;268.17;147.25;;;;;;;15.88;37.08;91791.53;5041353;28;20044;-90
2024/01/15 07:52:05;;;;;;;280.77;146.70;;;;;;;15.86;37.02;91785.16;5076561;28;20048;-87
2024/01/15 07:55:08;;;;;;;285.67;151.40;;;;;;;15.82;37.42;91774.59;5041534;28;20205;-94
2024/01/15 07:57:35;;;;;;;278.30;141.65;;;;;;;15.81;37.53;91778.59;5030568;28;20044;-92
2024/01/15 08:00:05;;;;;;;283.45;146.55;;;;;;;15.79;37.22;91777.69;5037188;28;20044;-92
2024/01/15 08:02:31;;;;;;;267.35;139.68;;;;;;;15.84;37.37;91776.78;5031448;28;20041;-90
2024/01/15 08:04:58;;;;;;;232.90;127.95;;;;;;;15.95;37.36;91785.44;5035758;28;20055;-91
2024/01/15 08:07:25;;;;;;;232.27;118.88;;;;;;;15.86;37.43;91782.44;5028660;28;20033;-91
2024/01/15 08:09:53;;;;;;;238.55;122.22;;;;;;;15.94;37.38;91786.69;5037273;28;20087;-91
2024/01/15 08:12:20;;;;;;;256.67;132.35;;;;;;;15.95;37.37;91793.59;5052585;28;20056;-92
2024/01/15 08:14:45;;;;;;;226.13;117.78;;;;;;;15.88;36.76;91785.38;5029487;28;20057;-92
2024/01/15 08:17:11;;;;;;;213.70;109.20;;;;;;;15.82;36.11;91787.50;5024680;28;20037;-91
2024/01/15 08:19:36;;;;;;;267.15;123.50;;;;;;;15.77;35.27;91789.13;5030512;28;20044;-90
2024/01/15 08:22:02;;;;;;;154.95;76.90;;;;;;;15.53;33.07;91789.41;5059326;28;20072;-91
2024/01/15 08:24:28;;;;;;;144.70;74.03;;;;;;;15.58;33.29;91781.16;5052131;28;20036;-91
2024/01/15 08:26:56;;;;;;;173.82;78.85;;;;;;;15.58;33.60;91772.97;5031788;28;20033;-92
2024/01/15 08:29:21;;;;;;;187.57;81.30;;;;;;;15.64;33.82;91770.84;5032350;28;20055;-88
2024/01/15 08:31:47;;;;;;;220.38;98.15;;;;;;;15.58;34.08;91759.34;5047918;28;20032;-89
2024/01/15 08:34:13;;;;;;;116.65;58.72;;;;;;;15.38;32.42;91768.94;5050067;28;20090;-90
2024/01/15 08:36:38;;;;;;;108.28;55.85;;;;;;;15.38;32.60;91765.47;5037638;28;20041;-91
2024/01/15 08:39:05;;;;;;;81.38;39.63;;;;;;;15.16;31.28;91760.56;5034042;28;20066;-89
2024/01/15 08:41:34;;;;;;;82.35;38.03;;;;;;;15.06;31.67;91776.63;5031620;28;20041;-90
2024/01/15 08:44:00;;;;;;;126.20;54.45;;;;;;;15.13;32.29;91758.91;5036732;28;20040;-89
2024/01/15 08:46:25;;;;;;;121.03;55.58;;;;;;;15.15;31.81;91767.28;5054228;28;20095;-89
2024/01/15 08:48:51;;;;;;;133.23;59.95;;;;;;;15.18;32.04;91782.53;5049571;28;20083;-90
2024/01/15 08:51:18;;;;;;;161.88;72.47;;;;;;;15.22;31.97;91764.63;5023647;28;20055;-91
2024/01/15 08:53:45;;;;;;;237.00;119.43;;;;;;;15.27;32.61;91777.38;5032408;28;20462;-90
2024/01/15 08:56:11;;;;;;;238.88;121.03;;;;;;;15.29;33.16;91772.13;5033491;28;20139;-91
2024/01/15 08:58:37;;;;;;;267.48;131.98;;;;;;;15.40;33.77;91784.75;5021573;28;20102;-91
2024/01/15 09:01:04;;;;;;;284.40;136.00;;;;;;;15.41;33.98;91786.22;5030085;28;20043;-92
2024/01/15 09:03:30;;;;;;;277.20;142.50;;;;;;;15.45;34.81;91778.44;5052124;28;20040;-92
2024/01/15 09:05:57;;;;;;;313.77;165.85;;;;;;;15.48;34.54;91780.09;5030727;28;20087;-91
2024/01/15 09:08:22;;;;;;;386.42;218.45;;;;;;;15.55;34.62;91765.09;5025745;28;20173;-92
2024/01/15 09:10:48;;;;;;;368.20;210.77;;;;;;;15.56;34.75;91751.00;5041184;28;20041;-90
2024/01/15 09:13:16;;;;;;;383.38;216.35;;;;;;;15.61;34.92;91744.66;5022010;28;20106;-93
2024/01/15 09:15:42;;;;;;;392.92;221.38;;;;;;;15.64;34.96;91764.66;5032071;28;20065;-91
2024/01/15 09:18:08;;;;;;;376.23;218.98;;;;;;;15.60;35.00;91747.91;5032326;28;20044;-90
2024/01/15 09:20:34;;;;;;;353.85;207.55;;;;;;;15.67;35.19;91749.97;5067814;28;20041;-90
2024/01/15 09:22:59;;;;;;;376.15;212.60;;;;;;;15.58;34.87;91766.81;5048276;28;20033;-90
2024/01/15 09:25:25;;;;;;;368.45;215.73;;;;;;;15.64;34.79;91759.94;5026015;28;20649;-91
2024/01/15 09:27:50;;;;;;;348.15;201.60;;;;;;;15.66;35.11;91762.84;5032432;28;20119;-91
2024/01/15 09:30:16;;;;;;;321.48;191.85;;;;;;;15.67;34.79;91771.75;5026071;28;20051;-93
2024/01/15 09:32:42;;;;;;;338.73;193.45;;;;;;;15.68;34.91;91781.41;5026044;28;20417;-91
2024/01/15 09:35:08;;;;;;;367.38;213.30;;;;;;;15.67;35.00;91769.78;5037581;28;20037;-87
2024/01/15 09:37:34;;;;;;;351.75;204.13;;;;;;;15.69;34.99;91771.97;5048306;28;20436;-90
2024/01/15 09:40:00;;;;;;;386.52;211.25;;;;;;;15.69;35.30;91769.25;5060459;28;20048;-87
2024/01/15 09:42:26;;;;;;;339.02;194.82;;;;;;;15.74;35.28;91776.56;5041246;28;20109;-89
2024/01/15 09:45:06;;;;;;;331.30;194.07;;;;;;;15.77;34.99;91770.03;5034756;28;20055;-89
2024/01/15 09:47:31;;;;;;;324.63;179.30;;;;;;;15.80;35.37;91763.53;5022681;28;20041;-89
2024/01/15 09:49:58;;;;;;;335.45;180.48;;;;;;;15.83;35.33;91767.16;5037292;28;20049;-93
2024/01/15 09:52:24;;;;;;;379.55;208.40;;;;;;;15.81;35.47;91775.13;5033396;28;20103;-89
2024/01/15 09:54:50;;;;;;;382.20;223.32;;;;;;;15.76;35.27;91771.31;5049645;28;20037;-87
2024/01/15 09:57:16;;;;;;;429.15;235.50;;;;;;;15.83;35.37;91773.34;5038730;28;20137;-91
2024/01/15 09:59:42;;;;;;;380.85;218.95;;;;;;;15.90;35.41;91766.50;5050570;28;20044;-90
2024/01/15 10:02:09;;;;;;;395.48;219.70;;;;;;;15.90;35.54;91758.31;5044822;28;20044;-91
2024/01/15 10:04:36;;;;;;;365.05;210.85;;;;;;;15.82;35.49;91760.97;5042610;28;20032;-88
2024/01/15 10:07:01;;;;;;;337.73;190.82;;;;;;;15.90;35.56;91769.94;5073765;28;20517;-89
2024/01/15 10:09:27;;;;;;;327.25;188.95;;;;;;;15.85;35.48;91776.25;5061752;28;20045;-87
2024/01/15 10:11:53;;;;;;;320.17;182.23;;;;;;;15.87;35.73;91775.72;5064319;28;20050;-88
2024/01/15 10:14:19;;;;;;;313.58;175.45;;;;;;;15.93;35.71;91762.69;5039481;28;20037;-88
2024/01/15 10:16:45;;;;;;;327.38;188.38;;;;;;;15.96;35.65;91756.19;5063964;28;20067;-89
2024/01/15 10:19:10;;;;;;;306.45;177.63;;;;;;;15.93;35.65;91754.53;5053027;28;20068;-91
2024/01/15 10:21:36;;;;;;;328.52;180.38;;;;;;;15.92;35.73;91766.69;5047901;28;20036;-91
2024/01/15 10:24:05;;;;;;;308.92;177.38;;;;;;;15.86;36.18;91761.38;5049329;28;20063;-89
2024/01/15 10:26:32;;;;;;;307.92;181.27;;;;;;;15.86;35.57;91752.47;5059602;28;20049;-89
2024/01/15 10:29:03;;;;;;;296.23;173.23;;;;;;;15.82;36.25;91755.53;5051174;28;20036;-89
2024/01/15 10:31:30;;;;;;;;;;;;;;;15.84;35.96;91755.00;5047531;28;20049;-91
2024/01/15 10:34:09;;;;;;;282.67;163.23;;;;;;;15.84;35.87;91766.63;5055310;28;19970;-91
2024/01/15 10:36:35;;;;;;;259.60;149.57;;;;;;;15.94;35.88;91758.72;5074204;28;20040;-87
2024/01/15 10:39:01;;;;;;;240.20;143.57;;;;;;;15.88;36.02;91758.13;5046160;28;20091;-90
2024/01/15 10:41:26;;;;;;;243.57;143.80;;;;;;;15.90;36.38;91752.88;5059249;28;20032;-91
2024/01/15 10:43:52;;;;;;;240.63;141.98;;;;;;;15.96;36.20;91748.75;5046061;28;20461;-87
2024/01/15 10:46:17;;;;;;;247.77;143.32;;;;;;;15.96;36.22;91746.03;5054281;28;20037;-90
2024/01/15 10:48:43;;;;;;;243.82;145.02;;;;;;;15.96;36.22;91745.28;5039383;28;20052;-90
2024/01/15 10:51:10;;;;;;;248.00;147.95;;;;;;;15.93;36.10;91730.00;5039394;28;20060;-88
2024/01/15 10:53:38;;;;;;;273.55;157.32;;;;;;;15.88;36.13;91736.31;5050263;28;20049;-90
2024/01/15 10:56:04;;;;;;;285.48;170.55;;;;;;;15.85;36.54;91734.66;5042006;28;20040;-89
2024/01/15 10:58:32;;;;;;;273.65;159.82;;;;;;;15.92;36.26;91734.00;5045116;28;20041;-90
2024/01/15 11:00:58;;;;;;;280.08;164.43;;;;;;;15.90;36.72;91720.16;5034677;28;20060;-86
2024/01/15 11:03:38;;;;;;;242.57;147.50;;;;;;;15.95;36.50;91719.31;5039702;28;20065;-92
2024/01/15 11:06:19;;;;;;;240.73;134.88;;;;;;;15.95;36.76;91722.75;5034212;28;21154;-90
2024/01/15 11:08:50;;;;;;;239.40;136.00;;;;;;;16.01;36.68;91711.72;5050125;28;20036;-90
2024/01/15 11:11:16;;;;;;;271.30;171.03;;;;;;;15.97;36.42;91722.94;5025324;28;20037;-91
2024/01/15 11:13:43;;;;;;;323.10;227.50;;;;;;;16.01;36.96;91725.34;5025246;28;20033;-92